Saxton, Pennsylvania
Current Conditions -  °F | °C
As of 2:09 AM on Saturday 29 Nov 2014 (Local Time) from KAOO Reporting Station
Haze Haze  
Wind Chill: 24°   Ceiling: 6500
Heat Index: 24°   Visibility: 6mi
Dew Point: 21°   Wind: 3mph
Humidity: 88%   Direction: 90°E
Pressure: 30.2"   Gusts: NA
Location:  40.22°N, 78.24°W
Report Text: KAOO 290709Z AUTO 09003KT 6SM BR SCT022 OVC065 M04/M06 A3020 RMK AO2 SNE09 P0000 T10441061
Loading
Personal Weather Stations






























Interactive Weather Map New forecast layout! Learn more

10-Day Weather Forecast

Advertisements
Track Severe Weather on mobile